MAU228 FIMP-FMEE
Flight info
| Callsign | MAU228 |
|---|---|
| Flight time | 0h 29m |
| Altitude | 16000 |
| Route | SOBAT1 SOBAT SOBAT2S |
| Aircraft | A332/H-SDE3GHIJ2J3J5M1RVWXY/LB2D1 |
Departure
| Time | 2026-04-16 08:28 |
|---|---|
| Airport | Sir Seewoosagur Ramgoolam International Airport (FIMP) |
Arrival
| Time | 2026-04-16 08:57 |
|---|---|
| Airport | Roland Garros Airport (FMEE) |
| Time | Latitude | Longitude | Altitude | Speed | Heading |
|---|---|---|---|---|---|
| 2026-04-16 08:00 | -20.43262 | 57.67953 | 186 ft | 0 kts | 237° |
| 2026-04-16 08:21 | -20.43251 | 57.67971 | 187 ft | 4 kts | 237° |
| 2026-04-16 08:21 | -20.43236 | 57.67996 | 184 ft | 4 kts | 237° |
| 2026-04-16 08:21 | -20.43223 | 57.68018 | 186 ft | 4 kts | 245° |
| 2026-04-16 08:22 | -20.43219 | 57.68043 | 186 ft | 4 kts | 298° |
| 2026-04-16 08:22 | -20.43237 | 57.68061 | 186 ft | 4 kts | 333° |
| 2026-04-16 08:22 | -20.43259 | 57.68072 | 188 ft | 1 kts | 335° |
| 2026-04-16 08:22 | -20.43260 | 57.68073 | 191 ft | 0 kts | 335° |
| 2026-04-16 08:24 | -20.43253 | 57.68069 | 197 ft | 2 kts | 335° |
| 2026-04-16 08:24 | -20.43232 | 57.68057 | 189 ft | 5 kts | 329° |
| 2026-04-16 08:24 | -20.43188 | 57.68026 | 188 ft | 10 kts | 326° |
| 2026-04-16 08:25 | -20.43128 | 57.67970 | 190 ft | 14 kts | 309° |
| 2026-04-16 08:25 | -20.43073 | 57.67873 | 198 ft | 17 kts | 298° |
| 2026-04-16 08:25 | -20.43015 | 57.67754 | 194 ft | 19 kts | 298° |
| 2026-04-16 08:25 | -20.42936 | 57.67643 | 198 ft | 19 kts | 327° |
| 2026-04-16 08:26 | -20.42820 | 57.67563 | 194 ft | 21 kts | 323° |
| 2026-04-16 08:26 | -20.42702 | 57.67480 | 192 ft | 20 kts | 339° |
| 2026-04-16 08:26 | -20.42606 | 57.67492 | 196 ft | 7 kts | 77° |
| 2026-04-16 08:26 | -20.42615 | 57.67509 | 185 ft | 0 kts | 120° |
| 2026-04-16 08:27 | -20.42626 | 57.67529 | 197 ft | 18 kts | 120° |
| 2026-04-16 08:27 | -20.42793 | 57.67876 | 168 ft | 86 kts | 117° |
| 2026-04-16 08:27 | -20.43159 | 57.68633 | 146 ft | 144 kts | 117° |
| 2026-04-16 08:27 | -20.43680 | 57.69718 | 449 ft | 170 kts | 117° |
| 2026-04-16 08:28 | -20.44207 | 57.70829 | 1285 ft | 166 kts | 117° |
| 2026-04-16 08:28 | -20.44726 | 57.71921 | 2107 ft | 165 kts | 117° |
| 2026-04-16 08:28 | -20.45354 | 57.72952 | 2794 ft | 168 kts | 133° |
| 2026-04-16 08:28 | -20.46354 | 57.73588 | 3457 ft | 173 kts | 165° |
| 2026-04-16 08:29 | -20.47625 | 57.73557 | 3852 ft | 198 kts | 192° |
| 2026-04-16 08:29 | -20.49023 | 57.73118 | 4363 ft | 218 kts | 198° |
| 2026-04-16 08:29 | -20.50499 | 57.72586 | 5117 ft | 228 kts | 198° |
| 2026-04-16 08:29 | -20.52016 | 57.72046 | 5972 ft | 232 kts | 198° |
| 2026-04-16 08:30 | -20.53519 | 57.71396 | 6819 ft | 236 kts | 213° |
| 2026-04-16 08:30 | -20.54593 | 57.70094 | 7636 ft | 238 kts | 249° |
| 2026-04-16 08:30 | -20.54759 | 57.68295 | 8095 ft | 258 kts | 282° |
| 2026-04-16 08:30 | -20.54168 | 57.66410 | 8542 ft | 276 kts | 293° |
| 2026-04-16 08:31 | -20.53408 | 57.64492 | 9229 ft | 284 kts | 293° |
| 2026-04-16 08:31 | -20.52645 | 57.62531 | 10009 ft | 289 kts | 292° |
| 2026-04-16 08:31 | -20.51881 | 57.60506 | 10604 ft | 303 kts | 292° |
| 2026-04-16 08:31 | -20.51088 | 57.58345 | 10950 ft | 322 kts | 291° |
| 2026-04-16 08:32 | -20.50261 | 57.56053 | 11368 ft | 338 kts | 291° |
| 2026-04-16 08:32 | -20.49412 | 57.53680 | 11955 ft | 346 kts | 291° |
| 2026-04-16 08:32 | -20.48550 | 57.51267 | 12710 ft | 349 kts | 291° |
| 2026-04-16 08:32 | -20.47685 | 57.48838 | 13477 ft | 352 kts | 290° |
| 2026-04-16 08:33 | -20.46991 | 57.46359 | 14185 ft | 355 kts | 280° |
| 2026-04-16 08:33 | -20.46918 | 57.43726 | 14755 ft | 359 kts | 264° |
| 2026-04-16 08:33 | -20.47385 | 57.41087 | 15338 ft | 364 kts | 258° |
| 2026-04-16 08:33 | -20.47969 | 57.38449 | 15820 ft | 365 kts | 257° |
| 2026-04-16 08:34 | -20.48564 | 57.35814 | 16006 ft | 369 kts | 258° |
| 2026-04-16 08:34 | -20.49159 | 57.33131 | 15987 ft | 373 kts | 258° |
| 2026-04-16 08:34 | -20.49751 | 57.30432 | 15973 ft | 373 kts | 258° |
| 2026-04-16 08:34 | -20.50337 | 57.27732 | 15965 ft | 374 kts | 258° |
| 2026-04-16 08:35 | -20.50920 | 57.25035 | 15961 ft | 373 kts | 258° |
| 2026-04-16 08:35 | -20.51501 | 57.22339 | 15962 ft | 373 kts | 258° |
| 2026-04-16 08:35 | -20.52084 | 57.19636 | 15959 ft | 373 kts | 258° |
| 2026-04-16 08:35 | -20.52665 | 57.16938 | 15966 ft | 373 kts | 258° |
| 2026-04-16 08:36 | -20.53244 | 57.14241 | 15969 ft | 373 kts | 258° |
| 2026-04-16 08:36 | -20.53821 | 57.11546 | 15959 ft | 373 kts | 258° |
| 2026-04-16 08:36 | -20.54392 | 57.08881 | 15960 ft | 373 kts | 258° |
| 2026-04-16 08:36 | -20.54971 | 57.06183 | 15963 ft | 373 kts | 258° |
| 2026-04-16 08:37 | -20.55549 | 57.03486 | 15965 ft | 373 kts | 258° |
| 2026-04-16 08:37 | -20.56127 | 57.00788 | 15960 ft | 373 kts | 258° |
| 2026-04-16 08:37 | -20.56704 | 56.98086 | 15960 ft | 373 kts | 258° |
| 2026-04-16 08:37 | -20.57280 | 56.95390 | 15961 ft | 373 kts | 258° |
| 2026-04-16 08:38 | -20.57856 | 56.92694 | 15962 ft | 373 kts | 258° |
| 2026-04-16 08:38 | -20.58432 | 56.89995 | 15961 ft | 373 kts | 258° |
| 2026-04-16 08:38 | -20.59007 | 56.87294 | 15962 ft | 373 kts | 258° |
| 2026-04-16 08:38 | -20.59581 | 56.84596 | 15962 ft | 373 kts | 258° |
| 2026-04-16 08:39 | -20.60154 | 56.81900 | 15962 ft | 372 kts | 258° |
| 2026-04-16 08:39 | -20.60726 | 56.79202 | 15962 ft | 373 kts | 258° |
| 2026-04-16 08:39 | -20.61299 | 56.76507 | 15962 ft | 373 kts | 258° |
| 2026-04-16 08:39 | -20.61872 | 56.73806 | 15962 ft | 372 kts | 258° |
| 2026-04-16 08:40 | -20.62436 | 56.71149 | 15962 ft | 372 kts | 258° |
| 2026-04-16 08:40 | -20.63008 | 56.68449 | 15962 ft | 372 kts | 258° |
| 2026-04-16 08:40 | -20.63579 | 56.65754 | 15962 ft | 373 kts | 258° |
| 2026-04-16 08:40 | -20.64152 | 56.63038 | 15961 ft | 374 kts | 258° |
| 2026-04-16 08:41 | -20.64724 | 56.60331 | 15962 ft | 373 kts | 258° |
| 2026-04-16 08:41 | -20.65294 | 56.57631 | 15962 ft | 373 kts | 258° |
| 2026-04-16 08:41 | -20.65866 | 56.54922 | 15962 ft | 373 kts | 258° |
| 2026-04-16 08:41 | -20.66437 | 56.52216 | 15967 ft | 373 kts | 258° |
| 2026-04-16 08:42 | -20.67007 | 56.49515 | 15969 ft | 373 kts | 258° |
| 2026-04-16 08:42 | -20.67576 | 56.46809 | 15722 ft | 374 kts | 258° |
| 2026-04-16 08:42 | -20.68148 | 56.44087 | 14919 ft | 378 kts | 258° |
| 2026-04-16 08:42 | -20.68720 | 56.41366 | 14109 ft | 381 kts | 257° |
| 2026-04-16 08:43 | -20.69296 | 56.38628 | 13490 ft | 376 kts | 257° |
| 2026-04-16 08:43 | -20.69866 | 56.35907 | 12812 ft | 374 kts | 257° |
| 2026-04-16 08:43 | -20.70433 | 56.33208 | 12218 ft | 370 kts | 257° |
| 2026-04-16 08:43 | -20.70991 | 56.30543 | 11654 ft | 365 kts | 257° |
| 2026-04-16 08:44 | -20.71540 | 56.27921 | 11156 ft | 358 kts | 257° |
| 2026-04-16 08:44 | -20.72102 | 56.25361 | 10858 ft | 347 kts | 256° |
| 2026-04-16 08:44 | -20.72663 | 56.22917 | 10771 ft | 330 kts | 256° |
| 2026-04-16 08:44 | -20.73202 | 56.20591 | 10649 ft | 316 kts | 256° |
| 2026-04-16 08:45 | -20.73721 | 56.18359 | 10528 ft | 303 kts | 256° |
| 2026-04-16 08:45 | -20.74218 | 56.16216 | 10387 ft | 292 kts | 256° |
| 2026-04-16 08:45 | -20.74696 | 56.14141 | 10188 ft | 286 kts | 256° |
| 2026-04-16 08:45 | -20.75173 | 56.12078 | 9811 ft | 287 kts | 256° |
| 2026-04-16 08:46 | -20.75649 | 56.10011 | 9463 ft | 286 kts | 257° |
| 2026-04-16 08:46 | -20.76131 | 56.07950 | 9117 ft | 285 kts | 256° |
| 2026-04-16 08:46 | -20.76606 | 56.05894 | 8777 ft | 285 kts | 257° |
| 2026-04-16 08:46 | -20.77076 | 56.03839 | 8443 ft | 284 kts | 257° |
| 2026-04-16 08:47 | -20.77545 | 56.01793 | 8105 ft | 283 kts | 257° |
| 2026-04-16 08:47 | -20.78014 | 55.99746 | 7765 ft | 283 kts | 257° |
| 2026-04-16 08:47 | -20.78481 | 55.97714 | 7431 ft | 281 kts | 256° |
| 2026-04-16 08:47 | -20.78945 | 55.95693 | 7097 ft | 279 kts | 257° |
| 2026-04-16 08:48 | -20.79405 | 55.93682 | 6763 ft | 278 kts | 256° |
| 2026-04-16 08:48 | -20.79865 | 55.91678 | 6421 ft | 277 kts | 256° |
| 2026-04-16 08:48 | -20.80317 | 55.89705 | 6249 ft | 268 kts | 256° |
| 2026-04-16 08:48 | -20.80752 | 55.87809 | 6176 ft | 256 kts | 256° |
| 2026-04-16 08:49 | -20.81168 | 55.86002 | 6089 ft | 245 kts | 257° |
| 2026-04-16 08:49 | -20.81562 | 55.84281 | 5915 ft | 240 kts | 257° |
| 2026-04-16 08:49 | -20.81959 | 55.82542 | 5611 ft | 241 kts | 257° |
| 2026-04-16 08:49 | -20.82363 | 55.80808 | 5318 ft | 240 kts | 254° |
| 2026-04-16 08:50 | -20.83071 | 55.79207 | 5045 ft | 239 kts | 231° |
| 2026-04-16 08:50 | -20.84375 | 55.78135 | 4770 ft | 239 kts | 204° |
| 2026-04-16 08:50 | -20.85944 | 55.77558 | 4517 ft | 238 kts | 196° |
| 2026-04-16 08:50 | -20.87545 | 55.77087 | 4250 ft | 237 kts | 195° |
| 2026-04-16 08:51 | -20.89139 | 55.76626 | 3993 ft | 237 kts | 195° |
| 2026-04-16 08:51 | -20.90720 | 55.76159 | 3702 ft | 234 kts | 196° |
| 2026-04-16 08:51 | -20.92207 | 55.75469 | 3393 ft | 233 kts | 216° |
| 2026-04-16 08:51 | -20.93198 | 55.74162 | 3190 ft | 224 kts | 248° |
| 2026-04-16 08:52 | -20.93390 | 55.72586 | 3162 ft | 208 kts | 277° |
| 2026-04-16 08:52 | -20.93097 | 55.71128 | 3149 ft | 193 kts | 285° |
| 2026-04-16 08:52 | -20.92732 | 55.69786 | 3133 ft | 185 kts | 287° |
| 2026-04-16 08:52 | -20.92377 | 55.68524 | 3122 ft | 172 kts | 287° |
| 2026-04-16 08:53 | -20.92064 | 55.67315 | 3060 ft | 165 kts | 285° |
| 2026-04-16 08:53 | -20.91790 | 55.66155 | 2910 ft | 157 kts | 282° |
| 2026-04-16 08:53 | -20.91545 | 55.65047 | 2673 ft | 148 kts | 284° |
| 2026-04-16 08:53 | -20.91321 | 55.63997 | 2457 ft | 143 kts | 284° |
| 2026-04-16 08:54 | -20.91104 | 55.62962 | 2235 ft | 142 kts | 283° |
| 2026-04-16 08:54 | -20.90897 | 55.61930 | 1996 ft | 141 kts | 282° |
| 2026-04-16 08:54 | -20.90695 | 55.60902 | 1817 ft | 141 kts | 283° |
| 2026-04-16 08:54 | -20.90492 | 55.59874 | 1574 ft | 141 kts | 283° |
| 2026-04-16 08:55 | -20.90287 | 55.58840 | 1292 ft | 142 kts | 284° |
| 2026-04-16 08:55 | -20.90082 | 55.57814 | 1134 ft | 140 kts | 284° |
| 2026-04-16 08:55 | -20.89878 | 55.56795 | 901 ft | 140 kts | 284° |
| 2026-04-16 08:55 | -20.89675 | 55.55780 | 658 ft | 139 kts | 284° |
| 2026-04-16 08:56 | -20.89478 | 55.54785 | 404 ft | 139 kts | 281° |
| 2026-04-16 08:56 | -20.89278 | 55.53781 | 199 ft | 140 kts | 284° |
| 2026-04-16 08:56 | -20.89064 | 55.52767 | 52 ft | 134 kts | 282° |
| 2026-04-16 08:56 | -20.88891 | 55.51912 | 56 ft | 101 kts | 282° |
| 2026-04-16 08:57 | -20.88785 | 55.51369 | 63 ft | 47 kts | 283° |
| 2026-04-16 08:57 | -20.88762 | 55.51169 | 65 ft | 18 kts | 248° |
| 2026-04-16 08:57 | -20.88850 | 55.51158 | 67 ft | 10 kts | 159° |
| 2026-04-16 08:57 | -20.88882 | 55.51169 | 70 ft | 0 kts | 165° |
| 2026-04-16 08:58 | -20.88881 | 55.51169 | 69 ft | 0 kts | 165° |
| 2026-04-16 08:58 | -20.88890 | 55.51170 | 67 ft | 4 kts | 172° |
| 2026-04-16 08:58 | -20.88926 | 55.51157 | 69 ft | 10 kts | 212° |
| 2026-04-16 08:58 | -20.88970 | 55.51129 | 67 ft | 8 kts | 209° |
| 2026-04-16 08:59 | -20.89020 | 55.51102 | 70 ft | 7 kts | 206° |
| 2026-04-16 08:59 | -20.89035 | 55.51094 | 71 ft | 0 kts | 206° |